createdAt,value
2019-04-14T00:00:23.087Z,1019.90
2019-04-14T00:01:23.752Z,1019.88
2019-04-14T00:02:22.986Z,1019.87
2019-04-14T00:03:23.708Z,1019.87
2019-04-14T00:04:22.890Z,1019.85
2019-04-14T00:05:23.277Z,1019.80
2019-04-14T00:06:22.791Z,1019.81
2019-04-14T00:07:23.049Z,1019.81
2019-04-14T00:08:22.690Z,1019.80
2019-04-14T00:09:22.766Z,1019.81
2019-04-14T00:10:22.609Z,1019.81
2019-04-14T00:11:23.412Z,1019.80
2019-04-14T00:12:23.019Z,1019.83
2019-04-14T00:13:22.446Z,1019.82
2019-04-14T00:14:22.918Z,1019.81
2019-04-14T00:15:32.355Z,1019.82
2019-04-14T00:16:22.793Z,1019.77
2019-04-14T00:17:22.250Z,1019.79
2019-04-14T00:18:22.997Z,1019.79
2019-04-14T00:19:22.147Z,1019.80
2019-04-14T00:20:22.835Z,1019.74
2019-04-14T00:21:22.051Z,1019.80
2019-04-14T00:22:22.686Z,1019.82
2019-04-14T00:23:21.952Z,1019.79
2019-04-14T00:24:22.780Z,1019.82
2019-04-14T00:25:21.852Z,1019.82
2019-04-14T00:26:22.627Z,1019.84
2019-04-14T00:27:21.752Z,1019.82
2019-04-14T00:28:22.848Z,1019.85
2019-04-14T00:29:21.868Z,1019.83
2019-04-14T00:30:21.611Z,1019.88
2019-04-14T00:31:21.714Z,1019.85
2019-04-14T00:32:22.579Z,1019.84
2019-04-14T00:33:21.462Z,1019.86
2019-04-14T00:34:22.376Z,1019.85
2019-04-14T00:35:21.372Z,1019.84
2019-04-14T00:36:21.882Z,1019.83
2019-04-14T00:37:21.258Z,1019.83
2019-04-14T00:38:21.801Z,1019.83
2019-04-14T00:39:21.164Z,1019.81
2019-04-14T00:40:21.531Z,1019.78
2019-04-14T00:41:33.003Z,1019.76
2019-04-14T00:42:21.262Z,1019.75
2019-04-14T00:43:22.028Z,1019.75
2019-04-14T00:44:21.061Z,1019.75
2019-04-14T00:45:33.094Z,1019.74
2019-04-14T00:46:21.163Z,1019.72
2019-04-14T00:47:20.767Z,1019.74
2019-04-14T00:48:22.299Z,1019.68
2019-04-14T00:49:20.668Z,1019.62
2019-04-14T00:50:21.147Z,1019.72
2019-04-14T00:51:20.579Z,1019.68
2019-04-14T00:52:21.185Z,1019.66
2019-04-14T00:53:20.821Z,1019.70
2019-04-14T00:54:21.681Z,1019.70
2019-04-14T00:55:20.514Z,1019.68
2019-04-14T00:56:21.476Z,1019.63
2019-04-14T00:57:20.272Z,1019.68
2019-04-14T00:58:21.365Z,1019.68
2019-04-14T00:59:20.174Z,1019.67
2019-04-14T01:00:20.746Z,1019.68
2019-04-14T01:01:20.076Z,1019.67
2019-04-14T01:02:21.098Z,1019.64
2019-04-14T01:03:20.002Z,1019.66
2019-04-14T01:04:20.834Z,1019.57
2019-04-14T01:05:19.880Z,1019.59
2019-04-14T01:06:20.810Z,1019.60
2019-04-14T01:07:19.797Z,1019.53
2019-04-14T01:08:20.601Z,1019.56
2019-04-14T01:09:19.685Z,1019.53
2019-04-14T01:10:19.633Z,1019.49
2019-04-14T01:11:20.304Z,1019.51
2019-04-14T01:12:19.532Z,1019.47
2019-04-14T01:13:20.117Z,1019.49
2019-04-14T01:14:19.432Z,1019.50
2019-04-14T01:15:20.115Z,1019.49
2019-04-14T01:16:23.087Z,1019.53
2019-04-14T01:17:19.910Z,1019.51
2019-04-14T01:18:19.236Z,1019.53
2019-04-14T01:19:19.844Z,1019.50
2019-04-14T01:20:19.136Z,1019.55
2019-04-14T01:21:19.658Z,1019.54
2019-04-14T01:22:19.036Z,1019.53
2019-04-14T01:23:19.383Z,1019.54
2019-04-14T01:24:18.943Z,1019.51
2019-04-14T01:25:19.359Z,1019.57
2019-04-14T01:26:18.839Z,1019.56
2019-04-14T01:27:18.943Z,1019.61
2019-04-14T01:28:20.030Z,1019.63
2019-04-14T01:29:18.822Z,1019.63
2019-04-14T01:30:19.788Z,1019.60
2019-04-14T01:31:18.591Z,1019.59
2019-04-14T01:32:19.656Z,1019.63
2019-04-14T01:33:18.493Z,1019.59
2019-04-14T01:34:19.423Z,1019.64
2019-04-14T01:35:18.397Z,1019.64
2019-04-14T01:36:19.171Z,1019.62
2019-04-14T01:37:18.292Z,1019.65
2019-04-14T01:38:19.036Z,1019.67
2019-04-14T01:40:18.504Z,1019.72
2019-04-14T01:41:19.239Z,1019.74
2019-04-14T01:42:18.137Z,1019.71
2019-04-14T01:43:18.925Z,1019.71
2019-04-14T01:44:17.946Z,1019.77
2019-04-14T01:45:18.602Z,1019.71
2019-04-14T01:46:24.113Z,1019.70
2019-04-14T01:47:18.169Z,1019.76
2019-04-14T01:48:17.755Z,1019.72
2019-04-14T01:49:17.973Z,1019.75
2019-04-14T01:50:17.649Z,1019.72
2019-04-14T01:51:17.799Z,1019.73
2019-04-14T01:52:18.630Z,1019.74
2019-04-14T01:53:18.257Z,1019.73
2019-04-14T01:54:17.450Z,1019.72
2019-04-14T01:55:17.764Z,1019.72
2019-04-14T01:56:17.353Z,1019.75
2019-04-14T01:57:17.610Z,1019.77
2019-04-14T01:58:18.540Z,1019.74
2019-04-14T01:59:17.334Z,1019.75
2019-04-14T02:00:18.439Z,1019.68
2019-04-14T02:01:17.128Z,1019.68
2019-04-14T02:02:18.334Z,1019.73
2019-04-14T02:03:17.122Z,1019.72
2019-04-14T02:04:17.933Z,1019.72
2019-04-14T02:05:16.906Z,1019.77
2019-04-14T02:06:17.958Z,1019.79
2019-04-14T02:07:16.811Z,1019.78
2019-04-14T02:08:17.764Z,1019.81
2019-04-14T02:09:16.708Z,1019.79
2019-04-14T02:10:17.231Z,1019.85
2019-04-14T02:11:16.615Z,1019.88
2019-04-14T02:12:17.026Z,1019.88
2019-04-14T02:13:16.510Z,1019.88
2019-04-14T02:14:16.888Z,1019.90
2019-04-14T02:15:16.412Z,1019.85
2019-04-14T02:16:28.236Z,1019.87
2019-04-14T02:17:17.660Z,1019.84
2019-04-14T02:18:16.429Z,1019.85
2019-04-14T02:19:16.216Z,1019.85
2019-04-14T02:20:16.402Z,1019.84
2019-04-14T02:21:17.189Z,1019.86
2019-04-14T02:22:16.064Z,1019.91
2019-04-14T02:23:17.105Z,1019.89
2019-04-14T02:24:15.965Z,1019.93
2019-04-14T02:25:16.566Z,1019.90
2019-04-14T02:26:15.869Z,1019.91
2019-04-14T02:27:16.629Z,1019.89
2019-04-14T02:28:15.768Z,1019.92
2019-04-14T02:29:16.835Z,1019.95
2019-04-14T02:30:20.807Z,1019.94
2019-04-14T02:31:35.588Z,1019.94
2019-04-14T02:32:45.405Z,1019.88
2019-04-14T02:34:49.460Z,1019.93
2019-04-14T02:35:45.133Z,1019.92
2019-04-14T02:37:43.347Z,1019.92
2019-04-14T02:38:49.321Z,1019.94
2019-04-14T02:39:46.620Z,1019.91
2019-04-14T02:40:45.968Z,1019.90
2019-04-14T02:41:51.335Z,1019.94
2019-04-14T02:42:42.391Z,1019.87
2019-04-14T02:43:54.528Z,1019.92
2019-04-14T02:45:45.222Z,1019.91
2019-04-14T02:46:47.250Z,1019.89
2019-04-14T02:47:59.497Z,1019.89
2019-04-14T02:49:44.255Z,1019.87
2019-04-14T02:50:38.512Z,1019.87
2019-04-14T02:51:40.126Z,1019.91
2019-04-14T02:52:46.466Z,1019.85
2019-04-14T02:53:42.754Z,1019.86
2019-04-14T02:55:44.828Z,1019.83
2019-04-14T02:57:37.754Z,1019.84
2019-04-14T02:58:50.022Z,1019.82
2019-04-14T03:00:58.477Z,1019.84
2019-04-14T03:02:10.264Z,1019.82
2019-04-14T03:02:44.469Z,1019.84
2019-04-14T03:03:37.506Z,1019.84
2019-04-14T03:05:45.041Z,1019.86
2019-04-14T03:06:41.525Z,1019.85
2019-04-14T03:07:46.762Z,1019.86
2019-04-14T03:08:45.625Z,1019.87
2019-04-14T03:10:40.466Z,1019.85
2019-04-14T03:11:43.598Z,1019.88
2019-04-14T03:12:38.136Z,1019.91
2019-04-14T03:14:40.230Z,1019.84
2019-04-14T03:15:39.885Z,1019.90
2019-04-14T03:16:47.098Z,1019.87
2019-04-14T03:17:47.340Z,1019.86
2019-04-14T03:18:39.543Z,1019.85
2019-04-14T03:19:44.182Z,1019.85
2019-04-14T03:20:39.586Z,1019.85
2019-04-14T03:23:46.960Z,1019.84
2019-04-14T03:24:35.898Z,1019.85
2019-04-14T03:25:31.793Z,1019.84
2019-04-14T03:26:35.221Z,1019.83
2019-04-14T03:28:37.821Z,1019.80
2019-04-14T03:29:37.195Z,1019.86
2019-04-14T03:31:04.012Z,1019.87
2019-04-14T03:34:06.652Z,1019.87
2019-04-14T03:34:55.335Z,1019.82
2019-04-14T03:37:46.864Z,1019.90
2019-04-14T03:38:43.198Z,1019.87
2019-04-14T03:39:40.545Z,1019.87
2019-04-14T03:41:38.680Z,1019.96
2019-04-14T03:42:48.536Z,1019.91
2019-04-14T03:44:41.830Z,1019.89
2019-04-14T03:45:42.874Z,1019.93
2019-04-14T03:46:44.579Z,1019.94
2019-04-14T03:47:34.963Z,1019.89
2019-04-14T03:49:42.463Z,1019.93
2019-04-14T03:50:40.346Z,1019.92
2019-04-14T03:52:50.280Z,1020.01
2019-04-14T03:53:38.522Z,1019.98
2019-04-14T03:55:25.102Z,1020.00
2019-04-14T03:56:14.395Z,1019.99
2019-04-14T03:57:12.513Z,1020.03
2019-04-14T03:58:13.065Z,1020.01
2019-04-14T03:59:11.257Z,1020.05
2019-04-14T04:00:11.743Z,1020.02
2019-04-14T04:01:11.158Z,1020.01
2019-04-14T04:02:11.813Z,1020.03
2019-04-14T04:03:11.059Z,1020.00
2019-04-14T04:04:11.884Z,1020.04
2019-04-14T04:05:10.957Z,1019.98
2019-04-14T04:06:11.812Z,1020.02
2019-04-14T04:07:10.858Z,1020.01
2019-04-14T04:08:11.476Z,1020.02
2019-04-14T04:09:10.758Z,1020.02
2019-04-14T04:10:11.428Z,1020.01
2019-04-14T04:11:10.660Z,1020.02
2019-04-14T04:12:11.662Z,1019.98
2019-04-14T04:13:10.583Z,1020.04
2019-04-14T04:14:11.651Z,1020.01
2019-04-14T04:15:10.560Z,1020.02
2019-04-14T04:16:11.467Z,1020.01
2019-04-14T04:17:10.362Z,1020.01
2019-04-14T04:18:11.315Z,1019.99
2019-04-14T04:19:13.611Z,1019.99
2019-04-14T04:20:11.007Z,1020.01
2019-04-14T04:21:10.175Z,1020.00
2019-04-14T04:22:10.631Z,1020.04
2019-04-14T04:23:10.068Z,1020.01
2019-04-14T04:24:10.724Z,1020.04
2019-04-14T04:25:09.985Z,1020.01
2019-04-14T04:26:10.458Z,1020.06
2019-04-14T04:27:10.890Z,1020.04
2019-04-14T04:28:10.214Z,1020.05
2019-04-14T04:29:09.770Z,1020.08
2019-04-14T04:30:10.225Z,1020.03
2019-04-14T04:31:09.676Z,1020.10
2019-04-14T04:32:09.991Z,1020.07
2019-04-14T04:33:10.700Z,1020.12
2019-04-14T04:34:09.791Z,1020.19
2019-04-14T04:35:10.647Z,1020.17
2019-04-14T04:36:09.557Z,1020.19
2019-04-14T04:37:10.369Z,1020.17
2019-04-14T04:38:09.632Z,1020.15
2019-04-14T04:39:10.305Z,1020.14
2019-04-14T04:40:09.445Z,1020.16
2019-04-14T04:41:10.139Z,1020.15
2019-04-14T04:42:09.231Z,1020.15
2019-04-14T04:43:10.159Z,1020.22
2019-04-14T04:44:09.437Z,1020.18
2019-04-14T04:45:10.292Z,1020.22
2019-04-14T04:46:09.147Z,1020.20
2019-04-14T04:47:09.865Z,1020.23
2019-04-14T04:48:09.011Z,1020.25
2019-04-14T04:49:15.134Z,1020.27
2019-04-14T04:50:08.730Z,1020.24
2019-04-14T04:51:09.309Z,1020.24
2019-04-14T04:52:11.439Z,1020.21
2019-04-14T04:53:09.094Z,1020.21
2019-04-14T04:54:08.529Z,1020.22
2019-04-14T04:55:08.851Z,1020.23
2019-04-14T04:56:08.435Z,1020.25
2019-04-14T04:57:08.878Z,1020.25
2019-04-14T04:58:08.331Z,1020.26
2019-04-14T04:59:08.287Z,1020.29
2019-04-14T05:00:09.244Z,1020.30
2019-04-14T05:01:08.183Z,1020.30
2019-04-14T05:02:09.043Z,1020.32
2019-04-14T05:03:08.088Z,1020.35
2019-04-14T05:04:09.046Z,1020.33
2019-04-14T05:05:07.990Z,1020.34
2019-04-14T05:06:09.118Z,1020.35
2019-04-14T05:07:08.043Z,1020.42
2019-04-14T05:08:08.702Z,1020.46
2019-04-14T05:09:07.997Z,1020.46
2019-04-14T05:10:08.899Z,1020.46
2019-04-14T05:11:07.689Z,1020.48
2019-04-14T05:12:08.959Z,1020.54
2019-04-14T05:13:07.589Z,1020.55
2019-04-14T05:14:08.686Z,1020.55
2019-04-14T05:15:07.490Z,1020.51
2019-04-14T05:16:08.496Z,1020.56
2019-04-14T05:17:07.940Z,1020.54
2019-04-14T05:18:07.346Z,1020.60
2019-04-14T05:19:17.245Z,1020.58
2019-04-14T05:20:07.416Z,1020.62
2019-04-14T05:21:08.176Z,1020.62
2019-04-14T05:22:07.143Z,1020.65
2019-04-14T05:23:08.063Z,1020.66
2019-04-14T05:24:07.143Z,1020.66
2019-04-14T05:25:07.972Z,1020.65
2019-04-14T05:26:07.157Z,1020.70
2019-04-14T05:28:06.996Z,1020.68
2019-04-14T05:29:07.736Z,1020.72
2019-04-14T05:30:06.921Z,1020.67
2019-04-14T05:31:07.615Z,1020.70
2019-04-14T05:32:06.706Z,1020.61
2019-04-14T05:33:07.482Z,1020.70
2019-04-14T05:34:06.559Z,1020.64
2019-04-14T05:35:07.429Z,1020.63
2019-04-14T05:36:06.453Z,1020.67
2019-04-14T05:37:07.194Z,1020.67
2019-04-14T05:38:06.350Z,1020.73
2019-04-14T05:39:06.835Z,1020.68
2019-04-14T05:40:06.250Z,1020.71
2019-04-14T05:41:07.005Z,1020.76
2019-04-14T05:42:12.586Z,1020.74
2019-04-14T05:43:06.748Z,1020.75
2019-04-14T05:44:06.387Z,1020.74
2019-04-14T05:45:06.595Z,1020.73
2019-04-14T05:46:05.956Z,1020.76
2019-04-14T05:47:06.525Z,1020.74
2019-04-14T05:48:05.853Z,1020.78
2019-04-14T05:49:06.561Z,1020.78
2019-04-14T05:50:05.756Z,1020.80
2019-04-14T05:51:06.410Z,1020.87
2019-04-14T05:52:05.663Z,1020.89
2019-04-14T05:53:06.500Z,1020.90
2019-04-14T05:54:05.679Z,1020.88
2019-04-14T05:55:06.549Z,1020.92
2019-04-14T05:56:05.779Z,1020.88
2019-04-14T05:57:06.543Z,1020.94
2019-04-14T05:58:05.715Z,1020.93
2019-04-14T05:59:06.632Z,1020.94
2019-04-14T06:00:06.011Z,1020.97
2019-04-14T06:01:05.208Z,1020.93
2019-04-14T06:02:05.158Z,1020.93
2019-04-14T06:03:05.998Z,1020.92
2019-04-14T06:04:05.064Z,1020.90
2019-04-14T06:05:06.445Z,1020.90
2019-04-14T06:06:04.962Z,1020.96
2019-04-14T06:07:04.914Z,1020.93
2019-04-14T06:08:04.864Z,1020.97
2019-04-14T06:09:04.814Z,1021.00
2019-04-14T06:10:04.764Z,1020.95
2019-04-14T06:11:04.720Z,1020.99
2019-04-14T06:12:04.669Z,1021.02
2019-04-14T06:13:04.671Z,1020.99
2019-04-14T06:14:04.569Z,1021.01
2019-04-14T06:15:04.518Z,1021.01
2019-04-14T06:16:04.470Z,1020.94
2019-04-14T06:17:04.418Z,1021.02
2019-04-14T06:18:04.370Z,1021.02
2019-04-14T06:19:04.321Z,1021.04
2019-04-14T06:20:04.270Z,1021.05
2019-04-14T06:21:04.218Z,1021.05
2019-04-14T06:22:04.171Z,1021.06
2019-04-14T06:23:04.119Z,1021.09
2019-04-14T06:24:04.071Z,1021.01
2019-04-14T06:25:04.025Z,1021.06
2019-04-14T06:26:03.973Z,1021.01
2019-04-14T06:27:03.932Z,1021.02
2019-04-14T06:28:03.876Z,1021.00
2019-04-14T06:29:03.824Z,1021.01
2019-04-14T06:30:03.831Z,1020.99
2019-04-14T06:31:03.731Z,1020.97
2019-04-14T06:32:03.677Z,1020.93
2019-04-14T06:33:03.625Z,1020.92
2019-04-14T06:34:03.578Z,1020.94
2019-04-14T06:35:03.528Z,1021.00
2019-04-14T06:36:03.479Z,1020.98
2019-04-14T06:37:03.427Z,1020.96
2019-04-14T06:38:05.761Z,1020.97
2019-04-14T06:39:03.330Z,1020.92
2019-04-14T06:40:03.282Z,1020.94
2019-04-14T06:41:03.231Z,1020.94
2019-04-14T06:42:03.186Z,1020.94
2019-04-14T06:43:03.133Z,1020.96
2019-04-14T06:44:03.084Z,1020.97
2019-04-14T06:45:03.032Z,1020.95
2019-04-14T06:46:02.997Z,1021.02
2019-04-14T06:47:02.951Z,1021.00
2019-04-14T06:48:02.887Z,1020.98
2019-04-14T06:49:02.839Z,1021.00
2019-04-14T06:50:02.786Z,1020.98
2019-04-14T06:51:02.741Z,1021.00
2019-04-14T06:52:02.701Z,1021.00
2019-04-14T06:53:02.637Z,1021.05
2019-04-14T06:54:02.588Z,1021.06
2019-04-14T06:55:02.542Z,1021.08
2019-04-14T06:56:02.492Z,1021.07
2019-04-14T06:57:02.439Z,1021.10
2019-04-14T06:58:02.394Z,1021.11
2019-04-14T06:59:02.343Z,1021.10
2019-04-14T07:00:02.298Z,1021.15
2019-04-14T07:01:02.255Z,1021.11
2019-04-14T07:02:02.194Z,1021.16
2019-04-14T07:03:02.151Z,1021.16
2019-04-14T07:04:02.099Z,1021.16
2019-04-14T07:05:02.048Z,1021.12
2019-04-14T07:06:01.997Z,1021.11
2019-04-14T07:07:01.949Z,1021.13
2019-04-14T07:08:01.900Z,1021.12
2019-04-14T07:09:01.849Z,1021.07
2019-04-14T07:10:01.804Z,1021.08
2019-04-14T07:11:01.752Z,1021.07
2019-04-14T07:12:01.793Z,1021.03
2019-04-14T07:13:01.653Z,1021.07
2019-04-14T07:14:01.602Z,1021.06
2019-04-14T07:15:01.554Z,1021.06
2019-04-14T07:16:01.506Z,1021.06
2019-04-14T07:17:01.456Z,1021.09
2019-04-14T07:18:01.406Z,1021.09
2019-04-14T07:19:01.357Z,1021.11
2019-04-14T07:20:02.577Z,1021.11
2019-04-14T07:21:01.259Z,1021.11
2019-04-14T07:22:01.214Z,1021.11
2019-04-14T07:23:01.161Z,1021.17
2019-04-14T07:24:01.115Z,1021.15
2019-04-14T07:25:01.078Z,1021.14
2019-04-14T07:26:01.014Z,1021.19
2019-04-14T07:27:00.987Z,1021.21
2019-04-14T07:28:00.914Z,1021.19
2019-04-14T07:29:00.865Z,1021.22
2019-04-14T07:30:00.813Z,1021.22
2019-04-14T07:31:00.766Z,1021.22
2019-04-14T07:32:00.719Z,1021.27
2019-04-14T07:33:00.725Z,1021.26
2019-04-14T07:34:00.618Z,1021.27
2019-04-14T07:35:00.575Z,1021.25
2019-04-14T07:36:00.536Z,1021.27
2019-04-14T07:37:00.469Z,1021.26
2019-04-14T07:38:00.423Z,1021.24
2019-04-14T07:39:00.374Z,1021.24
2019-04-14T07:40:00.323Z,1021.30
2019-04-14T07:41:00.273Z,1021.27
2019-04-14T07:42:00.224Z,1021.27
2019-04-14T07:43:00.179Z,1021.28
2019-04-14T07:44:00.128Z,1021.27
2019-04-14T07:45:00.083Z,1021.25
2019-04-14T07:46:00.032Z,1021.27
2019-04-14T07:46:59.982Z,1021.31
2019-04-14T07:47:59.929Z,1021.24
2019-04-14T07:48:59.882Z,1021.27
2019-04-14T07:49:59.832Z,1021.24
2019-04-14T07:50:59.784Z,1021.25
2019-04-14T07:51:59.742Z,1021.25
2019-04-14T07:52:59.683Z,1021.29
2019-04-14T07:53:59.642Z,1021.34
2019-04-14T07:54:59.588Z,1021.29
2019-04-14T07:55:59.538Z,1021.30
2019-04-14T07:56:59.490Z,1021.24
2019-04-14T07:57:59.441Z,1021.28
2019-04-14T07:58:59.391Z,1021.24
2019-04-14T07:59:59.344Z,1021.26
2019-04-14T08:00:59.297Z,1021.25
2019-04-14T08:01:59.248Z,1021.25
2019-04-14T08:02:59.198Z,1021.32
2019-04-14T08:03:59.155Z,1021.30
2019-04-14T08:04:59.100Z,1021.30
2019-04-14T08:05:59.049Z,1021.29
2019-04-14T08:06:59.000Z,1021.25
2019-04-14T08:07:58.951Z,1021.26
2019-04-14T08:08:58.903Z,1021.31
2019-04-14T08:09:58.853Z,1021.29
2019-04-14T08:10:58.808Z,1021.31
2019-04-14T08:11:58.757Z,1021.30
2019-04-14T08:12:58.708Z,1021.30
2019-04-14T08:13:58.666Z,1021.27
2019-04-14T08:14:58.613Z,1021.31
2019-04-14T08:15:58.568Z,1021.32
2019-04-14T08:16:58.514Z,1021.30
2019-04-14T08:17:58.467Z,1021.35
2019-04-14T08:18:58.417Z,1021.32
2019-04-14T08:19:58.374Z,1021.37
2019-04-14T08:20:58.320Z,1021.33
2019-04-14T08:21:58.278Z,1021.40
2019-04-14T08:22:58.224Z,1021.40
2019-04-14T08:23:58.178Z,1021.33
2019-04-14T08:24:58.127Z,1021.33
2019-04-14T08:25:58.078Z,1021.35
2019-04-14T08:26:58.033Z,1021.41
2019-04-14T08:27:57.983Z,1021.36
2019-04-14T08:28:57.935Z,1021.34
2019-04-14T08:29:57.885Z,1021.44
2019-04-14T08:30:57.839Z,1021.41
2019-04-14T08:31:57.825Z,1021.39
2019-04-14T08:32:57.739Z,1021.35
2019-04-14T08:33:57.691Z,1021.44
2019-04-14T08:34:57.645Z,1021.47
2019-04-14T08:35:57.596Z,1021.50
2019-04-14T08:36:57.549Z,1021.41
2019-04-14T08:37:57.499Z,1021.43
2019-04-14T08:38:57.454Z,1021.42
2019-04-14T08:39:57.403Z,1021.47
2019-04-14T08:40:57.353Z,1021.46
2019-04-14T08:41:57.307Z,1021.49
2019-04-14T08:42:57.262Z,1021.51
2019-04-14T08:43:57.213Z,1021.53
2019-04-14T08:44:57.163Z,1021.54
2019-04-14T08:45:57.119Z,1021.49
2019-04-14T08:46:57.066Z,1021.51
2019-04-14T08:47:57.024Z,1021.48
2019-04-14T08:48:56.971Z,1021.48
2019-04-14T08:49:56.937Z,1021.46
2019-04-14T08:50:56.875Z,1021.45
2019-04-14T08:51:56.829Z,1021.49
2019-04-14T08:52:56.782Z,1021.47
2019-04-14T08:54:56.682Z,1021.47
2019-04-14T08:55:56.636Z,1021.46
2019-04-14T08:56:56.587Z,1021.39
2019-04-14T08:57:56.539Z,1021.41
2019-04-14T08:58:56.492Z,1021.46
2019-04-14T08:59:56.446Z,1021.40
2019-04-14T09:00:56.404Z,1021.49
2019-04-14T09:01:56.348Z,1021.49
2019-04-14T09:03:56.253Z,1021.48
2019-04-14T09:04:56.208Z,1021.48
2019-04-14T09:05:56.161Z,1021.53
2019-04-14T09:06:56.118Z,1021.55
2019-04-14T09:07:56.071Z,1021.54
2019-04-14T09:08:56.017Z,1021.56
2019-04-14T09:09:55.969Z,1021.52
2019-04-14T09:10:55.927Z,1021.51
2019-04-14T09:11:55.876Z,1021.49
2019-04-14T09:12:55.827Z,1021.48
2019-04-14T09:13:55.782Z,1021.49
2019-04-14T09:14:57.314Z,1021.47
2019-04-14T09:15:55.709Z,1021.47
2019-04-14T09:16:55.657Z,1021.46
2019-04-14T09:17:55.625Z,1021.51
2019-04-14T09:19:07.076Z,1021.49
2019-04-14T09:19:55.558Z,1021.42
2019-04-14T09:20:55.463Z,1021.50
2019-04-14T09:21:55.415Z,1021.50
2019-04-14T09:22:55.396Z,1021.46
2019-04-14T09:23:56.884Z,1021.47
2019-04-14T09:24:55.312Z,1021.52
2019-04-14T09:25:55.238Z,1021.50
2019-04-14T09:26:55.188Z,1021.51
2019-04-14T09:27:55.152Z,1021.55
2019-04-14T09:28:55.097Z,1021.63
2019-04-14T09:29:55.038Z,1021.60
2019-04-14T09:30:54.997Z,1021.56
2019-04-14T09:31:54.961Z,1021.55
2019-04-14T09:32:54.909Z,1021.55
2019-04-14T09:33:54.867Z,1021.58
2019-04-14T09:34:54.850Z,1021.62
2019-04-14T09:35:54.791Z,1021.60
2019-04-14T09:36:54.724Z,1021.65
2019-04-14T09:37:54.684Z,1021.58
2019-04-14T09:38:54.614Z,1021.62
2019-04-14T09:39:54.561Z,1021.64
2019-04-14T09:40:54.553Z,1021.59
2019-04-14T09:41:54.474Z,1021.61
2019-04-14T09:42:54.472Z,1021.57
2019-04-14T09:43:54.378Z,1021.56
2019-04-14T09:44:54.341Z,1021.55
2019-04-14T09:45:54.283Z,1021.59
2019-04-14T09:46:54.239Z,1021.58
2019-04-14T09:47:54.191Z,1021.63
2019-04-14T09:48:54.147Z,1021.58
2019-04-14T09:49:54.100Z,1021.50
2019-04-14T09:51:04.185Z,1021.54
2019-04-14T09:51:54.005Z,1021.64
2019-04-14T09:52:53.958Z,1021.59
2019-04-14T09:53:53.936Z,1021.53
2019-04-14T09:54:53.870Z,1021.54
2019-04-14T09:55:53.819Z,1021.59
2019-04-14T09:56:53.772Z,1021.55
2019-04-14T09:57:53.737Z,1021.61
2019-04-14T09:58:53.682Z,1021.60
2019-04-14T09:59:53.642Z,1021.63
2019-04-14T10:00:53.588Z,1021.58
2019-04-14T10:01:53.543Z,1021.56
2019-04-14T10:02:53.500Z,1021.54
2019-04-14T10:03:53.455Z,1021.55
2019-04-14T10:04:53.405Z,1021.58
2019-04-14T10:05:53.358Z,1021.52
2019-04-14T10:06:53.312Z,1021.60
2019-04-14T10:07:53.268Z,1021.58
2019-04-14T10:08:53.222Z,1021.57
2019-04-14T10:09:53.175Z,1021.53
2019-04-14T10:10:53.131Z,1021.58
2019-04-14T10:19:28.305Z,1021.39
2019-04-14T10:20:28.263Z,1021.42
2019-04-14T10:21:28.216Z,1021.43
2019-04-14T10:22:33.735Z,1021.44
2019-04-14T10:23:28.125Z,1021.43
2019-04-14T10:24:28.075Z,1021.39
2019-04-14T10:25:28.033Z,1021.44
2019-04-14T10:26:27.988Z,1021.45
2019-04-14T10:27:27.941Z,1021.42
2019-04-14T10:28:27.900Z,1021.48
2019-04-14T10:29:27.852Z,1021.53
2019-04-14T10:30:27.804Z,1021.48
2019-04-14T10:31:27.757Z,1021.49
2019-04-14T10:32:27.737Z,1021.46
2019-04-14T10:33:27.670Z,1021.50
2019-04-14T10:34:27.628Z,1021.52
2019-04-14T10:35:27.580Z,1021.41
2019-04-14T10:36:27.543Z,1021.44
2019-04-14T10:37:27.490Z,1021.44
2019-04-14T10:38:27.440Z,1021.41
2019-04-14T10:39:27.397Z,1021.38
2019-04-14T10:40:27.357Z,1021.40
2019-04-14T10:41:27.310Z,1021.39
2019-04-14T10:42:27.260Z,1021.40
2019-04-14T10:43:27.214Z,1021.38
2019-04-14T10:44:27.171Z,1021.36
2019-04-14T10:45:27.124Z,1021.36
2019-04-14T10:46:27.130Z,1021.34
2019-04-14T10:47:27.033Z,1021.33
2019-04-14T10:48:26.990Z,1021.32
2019-04-14T10:49:26.943Z,1021.29
2019-04-14T10:50:30.941Z,1021.31
2019-04-14T10:51:30.275Z,1021.39
2019-04-14T10:52:26.809Z,1021.41
2019-04-14T10:53:26.773Z,1021.34
2019-04-14T10:54:26.718Z,1021.34
2019-04-14T10:55:26.671Z,1021.37
2019-04-14T10:56:26.626Z,1021.33
2019-04-14T10:57:26.583Z,1021.38
2019-04-14T10:58:26.551Z,1021.33
2019-04-14T10:59:26.495Z,1021.34
2019-04-14T11:00:26.448Z,1021.45
2019-04-14T11:01:26.408Z,1021.38
2019-04-14T11:02:26.364Z,1021.37
2019-04-14T11:03:26.313Z,1021.34
2019-04-14T11:04:26.269Z,1021.37
2019-04-14T11:05:26.226Z,1021.36
2019-04-14T11:06:26.182Z,1021.44
2019-04-14T11:07:26.137Z,1021.33
2019-04-14T11:08:26.095Z,1021.39
2019-04-14T11:09:26.047Z,1021.45
2019-04-14T11:10:26.012Z,1021.47
2019-04-14T11:11:25.960Z,1021.42
2019-04-14T11:12:25.915Z,1021.48
2019-04-14T11:13:25.870Z,1021.48
2019-04-14T11:14:25.831Z,1021.41
2019-04-14T11:15:25.785Z,1021.34
2019-04-14T11:16:25.752Z,1021.50
2019-04-14T11:17:25.691Z,1021.40
2019-04-14T11:18:25.651Z,1021.42
2019-04-14T11:19:25.609Z,1021.44
2019-04-14T11:20:25.560Z,1021.48
2019-04-14T11:21:25.515Z,1021.47
2019-04-14T11:22:25.473Z,1021.40
2019-04-14T11:24:25.462Z,1021.43
2019-04-14T11:25:25.354Z,1021.54
2019-04-14T11:26:25.297Z,1021.46
2019-04-14T11:27:25.287Z,1021.32
2019-04-14T11:28:25.238Z,1021.39
2019-04-14T11:29:25.176Z,1021.32
2019-04-14T11:30:25.209Z,1021.28
2019-04-14T11:31:25.088Z,1021.36
2019-04-14T11:40:00.311Z,1021.40
2019-04-14T11:41:00.253Z,1021.46
2019-04-14T11:42:00.211Z,1021.48
2019-04-14T11:43:00.162Z,1021.42
2019-04-14T11:44:00.123Z,1021.48
2019-04-14T11:45:00.080Z,1021.44
2019-04-14T11:46:02.989Z,1021.42
2019-04-14T11:46:59.996Z,1021.46
2019-04-14T11:47:59.957Z,1021.51
2019-04-14T11:48:59.906Z,1021.49
2019-04-14T11:49:59.864Z,1021.47
2019-04-14T11:50:59.820Z,1021.40
2019-04-14T11:51:59.778Z,1021.44
2019-04-14T11:52:59.741Z,1021.38
2019-04-14T11:54:42.069Z,1021.42
2019-04-14T11:55:42.029Z,1021.45
2019-04-14T11:56:44.609Z,1021.54
2019-04-14T11:57:41.944Z,1021.48
2019-04-14T11:58:41.930Z,1021.47
2019-04-14T11:59:41.905Z,1021.44
2019-04-14T12:00:41.834Z,1021.49
2019-04-14T12:01:41.800Z,1021.53
2019-04-14T12:02:41.735Z,1021.51
2019-04-14T12:03:41.687Z,1021.55
2019-04-14T12:04:41.648Z,1021.58
2019-04-14T12:05:41.602Z,1021.52
2019-04-14T12:06:41.556Z,1021.46
2019-04-14T12:07:41.514Z,1021.46
2019-04-14T12:08:41.477Z,1021.52
2019-04-14T12:09:41.430Z,1021.46
2019-04-14T12:10:41.387Z,1021.41
2019-04-14T12:11:41.345Z,1021.46
2019-04-14T12:12:41.310Z,1021.56
2019-04-14T12:13:41.262Z,1021.49
2019-04-14T12:14:41.221Z,1021.61
2019-04-14T12:15:41.178Z,1021.53
2019-04-14T12:16:41.136Z,1021.56
2019-04-14T12:17:41.096Z,1021.57
2019-04-14T12:18:41.051Z,1021.64
2019-04-14T12:19:41.011Z,1021.59
2019-04-14T12:20:40.971Z,1021.65
2019-04-14T12:21:40.930Z,1021.60
2019-04-14T12:22:40.886Z,1021.56
2019-04-14T12:23:40.846Z,1021.61
2019-04-14T12:24:40.805Z,1021.61
2019-04-14T12:25:40.763Z,1021.59
2019-04-14T12:26:40.723Z,1021.57
2019-04-14T12:27:41.783Z,1021.53
2019-04-14T12:28:40.639Z,1021.55
2019-04-14T12:29:41.202Z,1021.55
2019-04-14T12:30:40.556Z,1021.58
2019-04-14T12:31:40.514Z,1021.57
2019-04-14T12:32:40.475Z,1021.54
2019-04-14T12:33:40.432Z,1021.50
2019-04-14T12:34:40.391Z,1021.54
2019-04-14T12:35:40.353Z,1021.60
2019-04-14T12:36:40.311Z,1021.64
2019-04-14T12:37:40.288Z,1021.65
2019-04-14T12:38:40.226Z,1021.58
2019-04-14T12:39:40.186Z,1021.57
2019-04-14T12:40:40.281Z,1021.61
2019-04-14T12:41:40.104Z,1021.64
2019-04-14T12:42:40.063Z,1021.62
2019-04-14T12:43:40.021Z,1021.70
2019-04-14T12:44:39.982Z,1021.67
2019-04-14T12:45:39.939Z,1021.69
2019-04-14T12:46:39.898Z,1021.59
2019-04-14T12:47:40.490Z,1021.59